Bayard, Ohio
Current Conditions -  °F | °C
As of 1:51 AM on Thursday 18 Dec 2014 (Local Time) from KCAK Reporting Station
Overcast Overcast  
Wind Chill: 18°   Ceiling: 2300
Heat Index: 28°   Visibility: 10mi
Dew Point: 19°   Wind: 12mph
Humidity: 69%   Direction: 290°WNW
Pressure: 30.16"   Gusts: 22mph
Location:  40.7427°N, 81.0929°W
Report Text: KCAK 180651Z 29010G19KT 10SM OVC023 M02/M07 A3016 RMK AO2 SLP226 T10221072
Loading
Personal Weather Stations






























Interactive Weather Map New forecast layout! Learn more

10-Day Weather Forecast

Advertisements
Track Severe Weather on mobile